Time;durP1;ratioP1;P1;durP2;ratioP2;P2;SDS_P1;SDS_P2;PMS_P1;PMS_P2;Temp;Humidity;BMP_temperature;BMP_pressure;BME280_temperature;BME280_humidity;BME280_pressure;Samples;Min_cycle;Max_cycle;Signal;HPM_P1;HPM_P2
2022/10/15 00:01:46;;;;;;;587.65;536.85;;;14.60;99.90;;;14.70;100.00;100302.69;4858248;29;20213;-84
2022/10/15 00:04:15;;;;;;;582.17;532.30;;;14.60;99.90;;;14.70;100.00;100292.03;4871532;23;20236;-81
2022/10/15 00:06:43;;;;;;;579.40;530.03;;;14.60;99.90;;;14.70;100.00;100284.94;4856191;29;20212;-79
2022/10/15 00:09:11;;;;;;;580.28;531.25;;;14.60;99.90;;;14.71;100.00;100272.50;4853208;29;20221;-79
2022/10/15 00:11:39;;;;;;;576.80;527.50;;;14.60;99.90;;;14.70;100.00;100278.75;4853186;29;20668;-79
2022/10/15 00:14:07;;;;;;;577.95;528.88;;;14.60;99.90;;;14.69;100.00;100280.53;4854572;29;20233;-78
2022/10/15 00:16:35;;;;;;;580.20;531.15;;;14.60;99.90;;;14.71;100.00;100284.03;4852416;29;20209;-80
2022/10/15 00:19:03;;;;;;;578.25;529.80;;;14.60;99.90;;;14.69;100.00;100282.28;4849207;29;20230;-78
2022/10/15 00:21:31;;;;;;;575.58;527.15;;;14.60;99.90;;;14.69;100.00;100285.84;4848452;29;20256;-77
2022/10/15 00:23:58;;;;;;;583.22;534.40;;;14.60;99.90;;;14.71;100.00;100292.03;4850786;29;20225;-77
2022/10/15 00:26:28;;;;;;;580.75;532.20;;;14.60;99.90;;;14.70;100.00;100284.94;4851937;29;20210;-80
2022/10/15 00:29:00;;;;;;;579.15;530.58;;;14.60;99.90;;;14.74;100.00;100285.78;4848886;29;20260;-79
2022/10/15 00:31:30;;;;;;;589.75;539.60;;;14.60;99.90;;;14.70;100.00;100287.59;4852858;29;20217;-79
2022/10/15 00:34:01;;;;;;;577.15;528.95;;;14.60;99.90;;;14.72;100.00;100292.91;4851231;29;20248;-78
2022/10/15 00:36:33;;;;;;;579.65;531.50;;;14.60;99.90;;;14.72;100.00;100293.78;4852173;29;20221;-80
2022/10/15 00:39:03;;;;;;;577.00;528.80;;;14.60;99.90;;;14.72;100.00;100288.47;4863639;29;20626;-82
2022/10/15 00:41:36;;;;;;;579.40;531.50;;;14.60;99.90;;;14.75;100.00;100299.97;4859783;29;20201;-82
2022/10/15 00:44:23;;;;;;;581.25;533.13;;;14.60;99.90;;;14.75;100.00;100294.66;4854484;29;20229;-82
2022/10/15 00:46:56;;;;;;;576.05;528.05;;;14.60;99.90;;;14.75;100.00;100299.97;4858979;29;20213;-81
2022/10/15 00:49:40;;;;;;;581.17;532.78;;;14.60;99.90;;;14.74;100.00;100291.13;4854440;29;20224;-81
2022/10/15 00:52:23;;;;;;;574.00;526.20;;;14.60;99.90;;;14.73;100.00;100298.22;4859054;29;20218;-82
2022/10/15 00:55:04;;;;;;;565.40;518.20;;;14.60;99.90;;;14.76;100.00;100307.06;4836813;29;20246;-81
2022/10/15 00:57:33;;;;;;;583.13;533.97;;;14.60;99.90;;;14.76;100.00;100299.09;4853485;29;20225;-81
2022/10/15 01:00:07;;;;;;;577.10;528.63;;;14.60;99.90;;;14.74;100.00;100293.78;4844827;29;20206;-81
2022/10/15 01:02:38;;;;;;;578.33;530.40;;;14.60;99.90;;;14.72;100.00;100287.59;4856857;29;20216;-81
2022/10/15 01:05:07;;;;;;;571.85;524.83;;;14.70;99.90;;;14.75;100.00;100302.66;4858832;29;20236;-81
2022/10/15 01:07:36;;;;;;;577.38;529.58;;;14.60;99.90;;;14.73;100.00;100298.22;4875567;29;20210;-81
2022/10/15 01:10:06;;;;;;;574.47;526.85;;;14.60;99.90;;;14.76;100.00;100299.97;4858248;29;20205;-81
2022/10/15 01:13:12;;;;;;;587.45;539.25;;;14.60;99.90;;;14.77;100.00;100295.53;4830216;29;20210;-82
2022/10/15 01:15:54;;;;;;;566.97;520.00;;;14.60;99.90;;;14.76;100.00;100302.63;4859240;29;20213;-81
2022/10/15 01:18:39;;;;;;;573.53;526.38;;;14.60;99.90;;;14.76;100.00;100296.44;4843183;29;20242;-81
2022/10/15 01:21:29;;;;;;;581.63;533.03;;;14.60;99.90;;;14.77;100.00;100303.50;4839984;29;20213;-81
2022/10/15 01:24:45;;;;;;;566.47;518.80;;;14.60;99.90;;;14.77;100.00;100308.84;4881092;29;20232;-82
2022/10/15 01:27:28;;;;;;;569.95;521.72;;;14.60;99.90;;;14.77;100.00;100309.72;4856920;29;20220;-81
2022/10/15 01:30:21;;;;;;;576.13;527.45;;;14.70;99.90;;;14.76;100.00;100309.72;4856339;29;20217;-82
2022/10/15 01:33:16;;;;;;;574.33;525.70;;;14.60;99.90;;;14.79;100.00;100299.06;4855463;29;20221;-82
2022/10/15 01:35:55;;;;;;;569.55;520.97;;;14.70;99.90;;;14.79;100.00;100305.25;4870131;29;20209;-82
2022/10/15 01:38:42;;;;;;;577.53;528.60;;;14.90;99.90;;;14.78;100.00;100311.47;4847865;29;20308;-81
2022/10/15 01:41:19;;;;;;;572.83;524.72;;;14.60;99.90;;;14.80;100.00;100315.00;4855641;29;20222;-82
2022/10/15 01:44:23;;;;;;;580.00;530.85;;;14.70;99.90;;;14.80;100.00;100308.81;4839627;29;20228;-85
2022/10/15 01:47:56;;;;;;;568.08;519.33;;;14.70;99.90;;;14.82;100.00;100310.56;4850635;29;20592;-82
2022/10/15 01:50:27;;;;;;;556.72;507.88;;;14.70;99.90;;;14.82;100.00;100307.88;4859324;29;20210;-83
2022/10/15 01:52:57;;;;;;;574.13;525.08;;;14.70;99.90;;;14.82;100.00;100309.66;4840799;29;20214;-82
2022/10/15 01:55:26;;;;;;;577.33;527.25;;;14.70;99.90;;;14.82;100.00;100318.53;4827058;29;20221;-82
2022/10/15 01:57:57;;;;;;;583.45;534.13;;;15.40;99.90;;;14.82;100.00;100315.00;4840747;29;20229;-81
2022/10/15 02:00:25;;;;;;;578.85;529.58;;;14.70;99.90;;;14.83;100.00;100319.44;4858488;29;20228;-83
2022/10/15 02:02:59;;;;;;;582.58;532.92;;;14.70;99.90;;;14.84;100.00;100319.41;4864037;29;20210;-84
2022/10/15 02:05:44;;;;;;;575.42;527.25;;;14.70;99.90;;;14.84;100.00;100313.19;4873600;29;20225;-82
2022/10/15 02:08:37;;;;;;;575.17;526.55;;;14.80;99.90;;;14.86;100.00;100314.06;4860887;29;20240;-83
2022/10/15 02:11:12;;;;;;;573.45;524.67;;;14.70;99.90;;;14.87;100.00;100302.53;4843250;29;20214;-83
2022/10/15 02:14:03;;;;;;;575.30;526.65;;;14.80;99.90;;;14.89;100.00;100306.94;4841045;29;20229;-82
2022/10/15 02:16:48;;;;;;;574.38;525.50;;;14.80;99.90;;;14.90;100.00;100307.81;4851649;29;20225;-81
2022/10/15 02:19:56;;;;;;;569.53;520.97;;;14.80;99.90;;;14.89;100.00;100319.34;4860858;29;20225;-82
2022/10/15 02:22:39;;;;;;;569.60;520.28;;;14.80;99.90;;;14.90;100.00;100321.13;4859827;29;20209;-82
2022/10/15 02:25:20;;;;;;;573.95;524.58;;;14.80;99.90;;;14.93;100.00;100332.63;4857461;29;20651;-82
2022/10/15 02:27:51;;;;;;;575.03;525.60;;;14.80;99.90;;;14.92;100.00;100324.66;4867943;29;20703;-81
2022/10/15 02:30:19;;;;;;;569.15;520.60;;;14.80;99.90;;;14.92;100.00;100330.88;4859013;29;20240;-82
2022/10/15 02:32:54;;;;;;;586.42;536.97;;;14.80;99.90;;;14.93;100.00;100339.72;4840379;29;20210;-82
2022/10/15 02:35:23;;;;;;;581.30;532.20;;;14.80;99.90;;;14.94;100.00;100339.72;4842270;29;20232;-83
2022/10/15 02:37:54;;;;;;;591.20;541.67;;;14.80;99.90;;;14.95;100.00;100329.94;4871683;29;20237;-83
2022/10/15 02:40:27;;;;;;;588.47;538.92;;;14.90;99.90;;;14.98;100.00;100328.13;4843616;29;20214;-85
2022/10/15 02:42:56;;;;;;;585.67;536.22;;;14.80;99.90;;;14.96;100.00;100332.59;4839301;29;20216;-83
2022/10/15 02:45:24;;;;;;;580.42;531.65;;;14.80;99.90;;;14.93;100.00;100321.97;4861430;29;20288;-82
2022/10/15 02:47:52;;;;;;;594.00;544.58;;;14.80;99.90;;;14.93;100.00;100331.75;4856797;29;20229;-83
2022/10/15 02:50:20;;;;;;;598.33;548.65;;;14.80;99.90;;;14.92;100.00;100329.97;4858710;29;20205;-83
2022/10/15 02:52:52;;;;;;;596.45;546.72;;;14.80;99.90;;;14.95;100.00;100336.16;4834401;29;20228;-82
2022/10/15 02:55:20;;;;;;;588.25;539.13;;;14.80;99.90;;;14.94;100.00;100336.16;4871601;29;20245;-85
2022/10/15 02:57:48;;;;;;;580.55;531.53;;;14.80;99.90;;;14.96;100.00;100343.25;4864743;29;20245;-81
2022/10/15 03:00:17;;;;;;;585.75;536.67;;;14.80;99.90;;;14.96;100.00;100351.22;4885743;29;20225;-81
2022/10/15 03:02:49;;;;;;;588.47;538.85;;;14.80;99.90;;;14.96;100.00;100342.38;4861497;29;20240;-81
2022/10/15 03:05:18;;;;;;;593.25;543.30;;;14.90;99.90;;;14.94;100.00;100342.38;4857890;29;20722;-81
2022/10/15 03:07:46;;;;;;;594.90;545.10;;;14.80;99.90;;;15.00;100.00;100355.63;4854292;29;20225;-82
2022/10/15 03:10:16;;;;;;;593.85;544.20;;;14.90;99.90;;;15.01;100.00;100356.50;4858003;29;20224;-83
2022/10/15 03:12:44;;;;;;;592.70;543.17;;;14.90;99.90;;;14.98;100.00;100357.44;4843989;29;20205;-85
2022/10/15 03:15:13;;;;;;;599.75;549.13;;;14.90;99.90;;;14.98;100.00;100353.88;4843114;29;20233;-82
2022/10/15 03:17:43;;;;;;;589.47;539.90;;;14.90;99.90;;;14.99;100.00;100358.31;4858682;29;20652;-82
2022/10/15 03:20:11;;;;;;;594.95;545.40;;;14.90;99.90;;;15.01;100.00;100359.19;4852381;29;20221;-81
2022/10/15 03:22:39;;;;;;;600.83;550.38;;;14.90;99.90;;;14.99;100.00;100356.53;4858442;29;20667;-82
2022/10/15 03:25:07;;;;;;;598.47;548.45;;;14.90;99.90;;;15.03;100.00;100357.38;4849739;29;20213;-82
2022/10/15 03:27:35;;;;;;;608.90;558.33;;;14.90;99.90;;;14.99;100.00;100358.31;4857003;29;20209;-82
2022/10/15 03:30:11;;;;;;;602.75;551.65;;;14.90;99.90;;;15.03;100.00;100357.38;4856959;29;20696;-82
2022/10/15 03:32:41;;;;;;;600.58;550.75;;;14.90;99.90;;;15.01;100.00;100356.50;4852905;29;20209;-83
2022/10/15 03:35:09;;;;;;;606.88;556.30;;;14.90;99.90;;;15.02;100.00;100353.84;4872438;29;20248;-82
2022/10/15 03:37:38;;;;;;;611.45;560.05;;;14.90;99.90;;;15.03;100.00;100365.38;4857675;29;20210;-82
2022/10/15 03:40:09;;;;;;;602.40;552.08;;;14.90;99.90;;;15.03;100.00;100363.59;4853873;29;20210;-81
2022/10/15 03:42:41;;;;;;;606.22;555.75;;;14.90;99.90;;;15.05;100.00;100366.22;4854732;29;20210;-84
2022/10/15 03:45:11;;;;;;;602.15;552.03;;;14.90;99.90;;;15.06;100.00;100376.00;4855814;29;20225;-82
2022/10/15 03:47:39;;;;;;;606.63;556.58;;;14.90;99.90;;;15.06;100.00;100376.00;4849627;29;20213;-82
2022/10/15 03:50:08;;;;;;;598.55;548.55;;;14.90;99.90;;;15.09;100.00;100381.28;4865009;29;20610;-82
2022/10/15 03:52:36;;;;;;;606.28;555.58;;;14.90;99.90;;;15.13;100.00;100371.47;4856859;29;20208;-82
2022/10/15 03:55:06;;;;;;;600.75;550.65;;;15.00;99.90;;;15.15;100.00;100383.88;4857670;29;20229;-82
2022/10/15 03:57:36;;;;;;;605.75;555.22;;;15.00;99.90;;;15.25;100.00;100393.53;4854852;29;20214;-83
2022/10/15 04:00:07;;;;;;;594.17;544.08;;;15.10;99.90;;;15.25;100.00;100390.00;4855710;29;20221;-82
2022/10/15 04:02:41;;;;;;;597.22;547.08;;;15.10;99.90;;;15.28;100.00;100396.19;4855893;29;20213;-89
2022/10/15 04:05:21;;;;;;;592.88;543.63;;;15.20;99.90;;;15.27;100.00;100401.53;4868020;29;20220;-83
2022/10/15 04:07:53;;;;;;;587.13;537.88;;;15.20;99.90;;;15.25;100.00;100400.66;4857195;29;20244;-82
2022/10/15 04:10:23;;;;;;;598.90;548.67;;;15.20;99.90;;;15.27;100.00;100404.19;4857740;29;20213;-81
2022/10/15 04:12:52;;;;;;;592.08;542.33;;;15.10;99.90;;;15.28;100.00;100406.84;4858139;29;20213;-83
2022/10/15 04:15:20;;;;;;;604.45;554.55;;;15.20;99.90;;;15.26;100.00;100418.41;4858250;29;20233;-83
2022/10/15 04:17:54;;;;;;;603.25;553.88;;;15.20;99.90;;;15.27;100.00;100414.84;4857857;29;20240;-81
2022/10/15 04:20:25;;;;;;;600.13;551.38;;;15.20;99.90;;;15.28;100.00;100425.47;4858178;29;20671;-82
2022/10/15 04:22:53;;;;;;;602.67;553.55;;;15.20;99.90;;;15.27;100.00;100423.72;4858313;29;20216;-82
2022/10/15 04:25:21;;;;;;;601.13;551.85;;;15.20;99.90;;;15.25;100.00;100427.28;4859023;29;20217;-82
2022/10/15 04:27:49;;;;;;;605.05;555.53;;;15.20;99.90;;;15.22;100.00;100419.34;4857418;29;20703;-82
2022/10/15 04:30:18;;;;;;;603.67;554.17;;;15.20;99.90;;;15.22;100.00;100417.56;4856102;29;20216;-82
2022/10/15 04:32:53;;;;;;;602.33;553.15;;;15.20;99.90;;;15.22;100.00;100438.88;4851778;29;20217;-83
2022/10/15 04:35:22;;;;;;;607.50;557.97;;;15.10;99.90;;;15.20;100.00;100427.34;4868911;29;20240;-82
2022/10/15 04:38:10;;;;;;;604.08;554.53;;;15.20;99.90;;;15.19;100.00;100427.34;4848462;29;20241;-81
2022/10/15 04:41:08;;;;;;;604.45;554.67;;;15.10;99.90;;;15.19;100.00;100430.03;4847706;29;20218;-82
2022/10/15 04:44:02;;;;;;;594.40;544.63;;;15.10;99.90;;;15.21;100.00;100425.56;4859534;29;20219;-82
2022/10/15 04:46:32;;;;;;;599.10;550.15;;;15.10;99.90;;;15.19;100.00;100412.25;4853873;29;20210;-83
2022/10/15 04:49:08;;;;;;;605.38;556.15;;;15.20;99.90;;;15.20;100.00;100415.81;4861436;29;20245;-81
2022/10/15 04:51:39;;;;;;;609.58;559.33;;;15.10;99.90;;;15.21;100.00;100415.78;4852435;29;20212;-82
2022/10/15 04:54:14;;;;;;;607.35;557.60;;;15.20;99.90;;;15.22;100.00;100409.56;4854749;29;20224;-82
2022/10/15 04:57:05;;;;;;;604.83;555.28;;;15.20;99.90;;;15.25;100.00;100403.31;4855699;29;20579;-81
2022/10/15 04:59:35;;;;;;;611.63;561.28;;;15.20;99.90;;;15.24;100.00;100397.09;4856114;29;20237;-82
2022/10/15 05:02:42;;;;;;;595.15;544.90;;;15.20;99.90;;;15.27;100.00;100388.19;4866332;29;20235;-82
2022/10/15 05:05:24;;;;;;;606.75;556.40;;;15.20;99.90;;;15.21;100.00;100383.81;4872562;29;20252;-82
2022/10/15 05:08:01;;;;;;;610.63;560.28;;;15.10;99.90;;;15.18;100.00;100375.88;4855951;29;20244;-83
2022/10/15 05:10:31;;;;;;;614.88;564.10;;;15.10;99.90;;;15.12;100.00;100365.28;4867766;29;20217;-82
2022/10/15 05:13:04;;;;;;;615.90;565.00;;;15.00;99.90;;;15.11;100.00;100363.50;4839271;29;20221;-80
2022/10/15 05:15:34;;;;;;;611.45;561.55;;;15.00;99.90;;;15.10;100.00;100360.84;4864375;29;20241;-80
2022/10/15 05:18:06;;;;;;;614.42;563.85;;;15.00;99.90;;;15.08;100.00;100360.00;4854897;29;20229;-80
2022/10/15 05:20:49;;;;;;;615.97;564.90;;;15.00;99.90;;;15.06;100.00;100352.03;4866134;29;20220;-79
2022/10/15 05:23:19;;;;;;;619.85;569.13;;;15.00;99.90;;;15.02;100.00;100353.84;4841059;29;20209;-82
2022/10/15 05:26:10;;;;;;;616.17;565.30;;;14.90;99.90;;;15.08;100.00;100357.34;4852018;29;20213;-82
2022/10/15 05:28:38;;;;;;;610.97;560.53;;;14.90;99.90;;;15.10;100.00;100352.88;4850517;29;20225;-82
2022/10/15 05:31:19;;;;;;;613.28;561.92;;;14.90;99.90;;;15.10;100.00;100355.53;4844019;29;20213;-82
2022/10/15 05:33:49;;;;;;;605.08;554.58;;;15.00;99.90;;;15.11;100.00;100352.84;4855105;29;20213;-82
2022/10/15 05:36:25;;;;;;;607.95;557.15;;;15.00;99.90;;;15.11;100.00;100349.31;4861672;29;20240;-82
2022/10/15 05:38:58;;;;;;;611.72;559.85;;;14.90;99.90;;;15.11;100.00;100358.19;4857021;29;20233;-82
2022/10/15 05:41:27;;;;;;;614.47;562.83;;;14.90;99.90;;;15.15;100.00;100365.25;4867874;29;20208;-82
2022/10/15 05:43:57;;;;;;;617.55;565.90;;;15.00;99.90;;;15.12;100.00;100367.94;4847894;29;20214;-82
2022/10/15 05:46:29;;;;;;;608.33;558.30;;;14.90;99.90;;;15.11;100.00;100371.50;4857726;29;20670;-81
2022/10/15 05:48:59;;;;;;;625.45;571.97;;;15.00;99.90;;;15.11;100.00;100370.63;4862814;29;20218;-81
2022/10/15 05:51:29;;;;;;;605.60;555.05;;;15.00;99.90;;;15.09;100.00;100378.63;4862461;29;20205;-81
2022/10/15 05:54:04;;;;;;;604.38;554.17;;;15.00;99.90;;;15.12;100.00;100391.03;4863241;29;20220;-81
2022/10/15 05:56:35;;;;;;;610.00;559.78;;;15.00;99.90;;;15.09;100.00;100381.28;4876738;29;20236;-82
2022/10/15 05:59:03;;;;;;;612.67;561.80;;;15.00;99.90;;;15.08;100.00;100387.50;4877602;29;20225;-81
2022/10/15 06:01:31;;;;;;;626.30;573.03;;;15.00;99.90;;;15.06;100.00;100394.63;4866718;29;20224;-80
2022/10/15 06:04:00;;;;;;;615.53;563.90;;;14.90;99.90;;;15.07;100.00;100398.19;4868940;29;20243;-81
2022/10/15 06:06:30;;;;;;;608.55;558.28;;;15.00;99.90;;;15.09;100.00;100399.03;4873207;29;20221;-80
2022/10/15 06:09:00;;;;;;;609.25;558.55;;;15.00;99.90;;;15.11;100.00;100403.47;4871667;29;20235;-81
2022/10/15 06:11:28;;;;;;;618.70;567.53;;;15.00;99.90;;;15.14;100.00;100397.22;4862145;29;20232;-82
2022/10/15 06:13:58;;;;;;;609.25;559.45;;;15.00;99.90;;;15.15;100.00;100396.31;4861054;29;20221;-84
2022/10/15 06:16:28;;;;;;;613.63;563.20;;;15.10;99.90;;;15.17;100.00;100390.09;4863250;29;20225;-82
2022/10/15 06:19:14;;;;;;;607.95;557.95;;;15.00;99.90;;;15.17;100.00;100390.09;4860815;29;20236;-81
2022/10/15 06:22:05;;;;;;;604.35;554.10;;;15.10;99.90;;;15.18;100.00;100382.97;4865407;29;20227;-85
2022/10/15 06:24:49;;;;;;;600.15;550.40;;;15.10;99.90;;;15.20;100.00;100391.81;4859089;29;20205;-82
2022/10/15 06:27:27;;;;;;;607.30;556.15;;;15.10;99.90;;;15.20;100.00;100386.50;4860874;29;20564;-84
2022/10/15 06:29:55;;;;;;;603.72;553.67;;;15.10;99.90;;;15.21;100.00;100393.59;4856631;29;20708;-82
2022/10/15 06:32:23;;;;;;;609.03;558.72;;;15.10;99.90;;;15.23;100.00;100392.69;4857721;29;20209;-83
2022/10/15 06:34:51;;;;;;;611.70;561.17;;;15.20;99.90;;;15.24;100.00;100389.13;4855148;29;20218;-83
2022/10/15 06:37:19;;;;;;;605.35;554.90;;;15.20;99.90;;;15.26;100.00;100386.44;4858393;29;20233;-87
2022/10/15 06:39:47;;;;;;;615.22;564.08;;;15.20;99.90;;;15.31;100.00;100390.81;4860617;29;20214;-81
2022/10/15 06:42:16;;;;;;;613.90;562.47;;;15.20;99.90;;;15.29;100.00;100362.44;4856836;29;20222;-81
2022/10/15 06:44:47;;;;;;;616.25;564.30;;;15.20;99.90;;;15.29;100.00;100371.28;4862908;29;20217;-80
2022/10/15 06:47:16;;;;;;;612.33;560.88;;;15.20;99.90;;;15.32;100.00;100363.28;4855467;29;20217;-81
2022/10/15 06:49:47;;;;;;;611.22;559.72;;;15.20;99.90;;;15.37;100.00;100361.44;4856961;29;20222;-80
2022/10/15 06:52:15;;;;;;;609.03;557.55;;;15.30;99.90;;;15.38;100.00;100352.53;4855253;29;20214;-81
2022/10/15 06:54:43;;;;;;;609.58;558.47;;;15.30;99.90;;;15.35;100.00;100338.38;4853501;29;20698;-83
2022/10/15 06:57:11;;;;;;;606.65;555.55;;;15.20;99.90;;;15.36;100.00;100334.81;4860758;29;20245;-82
2022/10/15 06:59:40;;;;;;;610.83;559.97;;;15.30;99.90;;;15.37;100.00;100325.91;4831821;29;20226;-81
2022/10/15 07:02:09;;;;;;;610.15;559.95;;;15.30;99.90;;;15.36;100.00;100324.16;4855765;29;20706;-81
2022/10/15 07:04:37;;;;;;;610.78;559.75;;;15.20;99.90;;;15.37;100.00;100318.81;4861566;29;20205;-81
2022/10/15 07:07:05;;;;;;;612.75;562.25;;;15.20;99.90;;;15.37;100.00;100315.25;4862758;29;20206;-81
2022/10/15 07:09:34;;;;;;;612.90;562.47;;;15.30;99.90;;;15.33;100.00;100303.75;4868492;29;20240;-81
2022/10/15 07:12:03;;;;;;;613.00;562.35;;;15.20;99.90;;;15.33;100.00;100309.09;4860267;29;20217;-81
2022/10/15 07:14:31;;;;;;;612.25;561.53;;;15.20;99.90;;;15.38;100.00;100309.91;4861034;29;20224;-80
2022/10/15 07:16:59;;;;;;;608.75;557.95;;;15.20;99.90;;;15.41;100.00;100310.78;4862271;29;20229;-81
2022/10/15 07:19:28;;;;;;;610.20;559.28;;;15.20;99.90;;;15.36;100.00;100316.16;4871520;29;20240;-82
2022/10/15 07:21:56;;;;;;;607.50;557.05;;;15.20;99.90;;;15.37;100.00;100323.25;4859805;29;20229;-84
2022/10/15 07:24:24;;;;;;;606.92;556.53;;;15.20;99.90;;;15.36;100.00;100327.69;4859964;29;20206;-82
2022/10/15 07:26:52;;;;;;;611.85;560.80;;;15.20;99.90;;;15.35;100.00;100325.06;4840251;29;20222;-81
2022/10/15 07:29:20;;;;;;;620.42;569.28;;;15.20;99.90;;;15.37;100.00;100331.25;4854417;29;20240;-82
2022/10/15 07:31:48;;;;;;;618.70;568.25;;;15.20;99.90;;;15.34;100.00;100342.81;4860042;29;20205;-82
2022/10/15 07:34:18;;;;;;;620.80;569.75;;;15.20;99.90;;;15.35;100.00;100341.03;4860269;29;20578;-81
2022/10/15 07:36:46;;;;;;;616.35;565.60;;;15.20;99.90;;;15.35;100.00;100349.03;4860200;29;20285;-81
2022/10/15 07:39:17;;;;;;;616.60;565.83;;;15.20;99.90;;;15.35;100.00;100354.34;4868821;29;20256;-85
2022/10/15 07:41:45;;;;;;;610.92;560.75;;;15.20;99.90;;;15.32;100.00;100357.06;4865964;29;20209;-81
2022/10/15 07:44:13;;;;;;;617.60;566.83;;;15.20;99.90;;;15.34;100.00;100360.59;4868640;29;20211;-80
2022/10/15 07:46:41;;;;;;;619.70;568.90;;;15.20;99.90;;;15.34;100.00;100360.59;4868557;29;20217;-82
2022/10/15 07:49:10;;;;;;;613.92;563.60;;;15.20;99.90;;;15.33;100.00;100361.50;4860336;29;20260;-81
2022/10/15 07:51:38;;;;;;;608.30;558.22;;;15.20;99.90;;;15.34;100.00;100365.91;4871077;29;20222;-81
2022/10/15 07:54:06;;;;;;;613.83;563.63;;;15.20;99.90;;;15.36;100.00;100374.78;4866557;29;20219;-81
2022/10/15 07:56:34;;;;;;;615.63;565.13;;;15.20;99.90;;;15.34;100.00;100376.56;4860498;29;20233;-81
2022/10/15 07:59:02;;;;;;;607.90;557.63;;;15.20;99.90;;;15.36;100.00;100377.44;4873244;29;20236;-81
2022/10/15 08:01:29;;;;;;;611.20;560.85;;;15.30;99.90;;;15.39;100.00;100380.06;4869361;29;20209;-80
2022/10/15 08:03:57;;;;;;;619.15;567.55;;;15.30;99.90;;;15.40;100.00;100375.63;4866844;29;20229;-82
2022/10/15 08:06:27;;;;;;;617.28;566.38;;;15.30;99.90;;;15.41;100.00;100374.72;4859516;29;20217;-83
2022/10/15 08:08:54;;;;;;;618.35;567.70;;;15.30;99.90;;;15.41;100.00;100377.38;4858249;29;20226;-81
2022/10/15 08:11:46;;;;;;;618.42;566.90;;;15.30;99.90;;;15.46;100.00;100380.88;4861825;29;20210;-81
2022/10/15 08:14:37;;;;;;;610.58;559.45;;;15.30;99.90;;;15.54;100.00;100387.88;4854892;29;20217;-82
2022/10/15 08:17:25;;;;;;;614.67;562.65;;;15.40;99.90;;;15.63;100.00;100401.16;4858294;29;20237;-81
2022/10/15 08:20:14;;;;;;;614.00;562.55;;;15.50;99.90;;;15.79;100.00;100408.97;4857288;29;20209;-82
2022/10/15 08:23:03;;;;;;;643.00;590.47;;;15.60;99.90;;;15.86;100.00;100414.22;4855722;29;20228;-82
2022/10/15 08:25:51;;;;;;;621.63;570.92;;;15.70;99.90;;;15.97;100.00;100419.41;4852784;29;20213;-82
2022/10/15 08:28:43;;;;;;;624.78;573.95;;;15.80;99.90;;;16.06;100.00;100415.72;4855981;29;20240;-82
2022/10/15 08:31:32;;;;;;;626.17;575.72;;;15.90;99.90;;;16.20;100.00;100422.63;4848532;29;20202;-81
2022/10/15 08:34:24;;;;;;;634.45;582.97;;;16.00;99.90;;;16.16;100.00;100420.03;4856069;29;20208;-81
2022/10/15 08:37:12;;;;;;;634.40;583.25;;;16.00;99.90;;;16.26;100.00;100427.00;4854271;29;20233;-80
2022/10/15 08:40:05;;;;;;;633.33;582.97;;;16.10;99.90;;;16.44;100.00;100425.84;4856886;29;20216;-81
2022/10/15 08:42:53;;;;;;;643.85;592.58;;;16.20;99.90;;;16.39;100.00;100422.38;4850172;29;20225;-81
2022/10/15 08:45:47;;;;;;;635.65;585.15;;;16.20;99.90;;;16.39;100.00;100419.69;4857470;29;20209;-80
2022/10/15 08:48:50;;;;;;;645.53;594.55;;;16.30;99.90;;;16.58;100.00;100423.84;4865551;29;20239;-80
2022/10/15 08:52:22;;;;;;;651.88;600.58;;;16.40;99.90;;;16.72;100.00;100419.22;4857151;29;20632;-80
2022/10/15 08:55:22;;;;;;;643.25;592.53;;;16.50;99.90;;;16.70;100.00;100413.00;4859088;29;20530;-80
2022/10/15 08:58:24;;;;;;;650.30;599.28;;;16.60;99.90;;;16.69;100.00;100394.34;4858194;29;20236;-80
2022/10/15 09:01:39;;;;;;;658.90;607.40;;;16.60;99.90;;;16.60;100.00;100377.53;4863041;29;20228;-81
2022/10/15 09:05:21;;;;;;;666.65;613.78;;;16.50;99.90;;;16.60;100.00;100373.97;4862022;29;20228;-80
2022/10/15 09:08:27;;;;;;;657.72;605.97;;;16.50;99.90;;;16.83;100.00;100368.28;4845405;29;20236;-80
2022/10/15 09:11:47;;;;;;;675.60;623.30;;;16.60;99.90;;;16.84;100.00;100365.59;4864919;29;20216;-80
2022/10/15 09:14:40;;;;;;;673.30;621.05;;;16.70;99.90;;;16.92;100.00;100350.34;4858299;29;20205;-81
2022/10/15 09:17:32;;;;;;;685.35;632.92;;;16.80;99.90;;;17.09;100.00;100362.50;4862448;29;20233;-80
2022/10/15 09:20:33;;;;;;;690.90;639.15;;;16.90;99.90;;;17.06;100.00;100339.41;4869711;29;20200;-80
2022/10/15 09:23:26;;;;;;;694.80;642.08;;;16.90;99.90;;;17.39;100.00;100356.56;4879713;29;20204;-81
2022/10/15 09:26:46;;;;;;;693.58;640.88;;;17.10;99.90;;;17.56;100.00;100342.84;4864900;29;20204;-80
2022/10/15 09:30:12;;;;;;;690.05;637.42;;;17.30;99.90;;;17.44;100.00;100332.41;4862413;29;20222;-81
2022/10/15 09:33:21;;;;;;;704.47;651.00;;;17.30;99.90;;;17.21;100.00;100307.03;4861823;29;20219;-80
2022/10/15 09:36:36;;;;;;;710.13;657.10;;;17.10;99.90;;;17.33;100.00;100318.38;4875327;29;20213;-80
2022/10/15 09:39:43;;;;;;;711.50;658.90;;;17.20;99.90;;;17.23;100.00;100307.00;4860457;29;20229;-80
2022/10/15 09:42:37;;;;;;;712.15;659.55;;;17.10;99.90;;;17.16;100.00;100303.56;4845830;29;20202;-80
2022/10/15 09:45:25;;;;;;;720.85;667.53;;;17.00;99.90;;;17.32;100.00;100314.81;4844210;29;20209;-80
2022/10/15 09:48:17;;;;;;;721.10;668.50;;;17.10;99.90;;;17.53;100.00;100322.41;4860749;29;20232;-80
2022/10/15 09:51:30;;;;;;;726.92;673.85;;;17.30;99.90;;;17.62;100.00;100328.47;4862806;29;20213;-81
2022/10/15 09:55:06;;;;;;;722.33;668.90;;;17.50;99.90;;;17.71;100.00;100326.50;4869202;29;20592;-80
2022/10/15 09:58:03;;;;;;;724.45;671.38;;;17.50;99.90;;;17.72;100.00;100324.72;4862787;29;20670;-80
2022/10/15 10:01:07;;;;;;;733.55;680.65;;;17.50;99.90;;;17.53;100.00;100311.72;4862857;29;20212;-81
2022/10/15 10:04:28;;;;;;;736.63;682.50;;;17.50;99.90;;;17.62;100.00;100315.97;4853380;29;20220;-80
2022/10/15 10:07:37;;;;;;;740.45;686.50;;;17.40;99.90;;;17.60;100.00;100301.75;4863197;29;20292;-81
2022/10/15 10:10:27;;;;;;;747.20;693.35;;;17.40;99.90;;;17.69;100.00;100314.97;4863097;29;20216;-80
2022/10/15 10:13:30;;;;;;;749.75;696.35;;;17.50;99.90;;;18.00;100.00;100316.94;4862040;29;20224;-80
2022/10/15 10:16:20;;;;;;;757.40;703.88;;;17.70;99.90;;;18.39;100.00;100307.09;4847552;29;20595;-81
2022/10/15 10:19:13;;;;;;;764.85;711.00;;;18.10;99.90;;;18.46;100.00;100284.63;4856374;29;20602;-80
2022/10/15 10:22:20;;;;;;;772.30;717.53;;;18.30;99.90;;;18.56;100.00;100275.41;4863044;29;20225;-81
2022/10/15 10:25:39;;;;;;;769.03;715.03;;;18.30;99.90;;;18.49;100.00;100263.13;4877074;29;20205;-81
2022/10/15 10:28:34;;;;;;;776.80;722.40;;;18.40;99.90;;;18.70;100.00;100261.69;4879944;29;20239;-80